Time;durP1;ratioP1;P1;durP2;ratioP2;P2;SDS_P1;SDS_P2;PMS_P1;PMS_P2;Temp;Humidity;BMP_temperature;BMP_pressure;BME280_temperature;BME280_humidity;BME280_pressure;Samples;Min_cycle;Max_cycle;Signal;HPM_P1;HPM_P2
2023/11/01 00:01:26;;;;;;;7.80;2.92;;;11.80;99.90;;;;;;5016160;28;20093;-68
2023/11/01 00:03:52;;;;;;;12.70;3.88;;;11.90;99.90;;;;;;5013147;28;20112;-68
2023/11/01 00:06:18;;;;;;;13.63;3.47;;;11.90;99.90;;;;;;5012030;28;20505;-68
2023/11/01 00:08:43;;;;;;;9.88;2.60;;;11.80;99.90;;;;;;5009206;28;20053;-68
2023/11/01 00:11:09;;;;;;;10.50;2.97;;;11.90;99.90;;;;;;5011770;28;20112;-67
2023/11/01 00:13:35;;;;;;;10.63;3.15;;;11.80;99.90;;;;;;5013342;28;20429;-69
2023/11/01 00:16:00;;;;;;;10.50;3.22;;;11.90;99.90;;;;;;5015388;28;20034;-69
2023/11/01 00:18:26;;;;;;;9.95;3.05;;;11.90;99.90;;;;;;5016762;28;20025;-69
2023/11/01 00:20:51;;;;;;;9.60;3.38;;;11.80;99.90;;;;;;5010579;28;20084;-69
2023/11/01 00:23:18;;;;;;;9.75;3.42;;;11.80;99.90;;;;;;5011850;28;20486;-69
2023/11/01 00:25:46;;;;;;;9.48;3.40;;;11.80;99.90;;;;;;5019559;28;20026;-68
2023/11/01 00:28:12;;;;;;;12.23;3.47;;;11.90;99.90;;;;;;5011150;28;20033;-68
2023/11/01 00:30:38;;;;;;;13.00;3.85;;;11.90;99.90;;;;;;5011593;28;20033;-69
2023/11/01 00:33:03;;;;;;;11.00;3.50;;;11.90;99.90;;;;;;5015992;28;20033;-69
2023/11/01 00:35:29;;;;;;;10.13;3.78;;;11.90;99.90;;;;;;5001751;28;20034;-69
2023/11/01 00:37:57;;;;;;;12.27;4.10;;;11.80;99.90;;;;;;5009884;28;20482;-68
2023/11/01 00:40:26;;;;;;;12.57;3.72;;;11.80;99.90;;;;;;5014509;28;20030;-68
2023/11/01 00:42:51;;;;;;;8.98;3.63;;;11.80;99.90;;;;;;5018306;28;20696;-69
2023/11/01 00:45:17;;;;;;;10.45;4.13;;;11.80;99.90;;;;;;5018461;28;20037;-70
2023/11/01 00:47:45;;;;;;;9.15;4.25;;;11.80;99.90;;;;;;5011733;28;20033;-68
2023/11/01 00:50:10;;;;;;;17.25;4.30;;;11.80;99.90;;;;;;5008347;28;20026;-68
2023/11/01 00:52:36;;;;;;;11.00;4.18;;;11.70;99.90;;;;;;5012589;28;20068;-68
2023/11/01 00:55:01;;;;;;;10.15;3.95;;;11.70;99.90;;;;;;5023102;28;20083;-68
2023/11/01 00:57:27;;;;;;;11.48;4.10;;;11.70;99.90;;;;;;5025549;28;20079;-68
2023/11/01 00:59:53;;;;;;;8.57;3.63;;;11.70;99.90;;;;;;5008627;28;20045;-69
2023/11/01 01:02:19;;;;;;;11.32;3.47;;;11.60;99.90;;;;;;5009826;28;20395;-69
2023/11/01 01:04:46;;;;;;;9.02;3.67;;;11.70;99.90;;;;;;5014111;28;20072;-69
2023/11/01 01:07:12;;;;;;;14.68;3.42;;;11.60;99.90;;;;;;5011085;28;20026;-69
2023/11/01 01:09:38;;;;;;;9.50;3.53;;;11.60;99.90;;;;;;5001075;28;20033;-70
2023/11/01 01:12:04;;;;;;;8.02;3.33;;;11.60;99.90;;;;;;5010528;28;20041;-68
2023/11/01 01:14:30;;;;;;;11.00;3.63;;;11.50;99.90;;;;;;5018659;28;20038;-69
2023/11/01 01:16:55;;;;;;;14.10;3.80;;;11.50;99.90;;;;;;5010779;28;20083;-69
2023/11/01 01:19:22;;;;;;;9.23;3.38;;;11.50;99.90;;;;;;5009120;28;20038;-69
2023/11/01 01:21:48;;;;;;;10.20;3.50;;;11.40;99.90;;;;;;5000244;28;20030;-69
2023/11/01 01:24:13;;;;;;;11.82;3.08;;;11.40;99.90;;;;;;5014064;28;20071;-69
2023/11/01 01:26:39;;;;;;;11.23;3.00;;;11.40;99.90;;;;;;5014128;28;20034;-69
2023/11/01 01:29:04;;;;;;;24.60;3.80;;;11.30;99.90;;;;;;5010648;28;20026;-69
2023/11/01 01:31:30;;;;;;;10.73;2.97;;;11.30;99.90;;;;;;5003874;28;20026;-69
2023/11/01 01:33:56;;;;;;;7.20;3.20;;;11.40;99.90;;;;;;5013636;28;20034;-69
2023/11/01 01:36:21;;;;;;;13.32;3.38;;;11.40;99.90;;;;;;5010787;28;20033;-69
2023/11/01 01:38:47;;;;;;;13.93;3.50;;;11.40;99.90;;;;;;5011084;28;20088;-69
2023/11/01 01:41:12;;;;;;;12.52;3.85;;;11.40;99.90;;;;;;5008716;28;20033;-69
2023/11/01 01:43:38;;;;;;;9.88;3.75;;;11.40;99.90;;;;;;5011098;28;20026;-69
2023/11/01 01:46:10;;;;;;;8.85;3.47;;;11.40;99.90;;;;;;5010115;28;20481;-69
2023/11/01 01:48:36;;;;;;;;;;;11.40;99.90;;;;;;5014326;28;20657;-69
2023/11/01 01:51:04;;;;;;;11.10;3.63;;;11.40;99.90;;;;;;5012416;28;19910;-70
2023/11/01 01:53:31;;;;;;;7.72;3.00;;;11.30;99.90;;;;;;5001800;28;20042;-69
2023/11/01 01:55:57;;;;;;;10.35;3.15;;;11.30;99.90;;;;;;5014588;28;20390;-69
2023/11/01 01:58:26;;;;;;;14.70;2.88;;;11.30;99.90;;;;;;5023764;28;20477;-69
2023/11/01 02:00:52;;;;;;;7.47;2.97;;;11.30;99.90;;;;;;5008136;28;20037;-69
2023/11/01 02:03:18;;;;;;;11.20;3.00;;;11.30;99.90;;;;;;5011012;28;20501;-69
2023/11/01 02:05:44;;;;;;;9.00;2.50;;;11.40;99.90;;;;;;5005618;28;20030;-69
2023/11/01 02:08:09;;;;;;;9.45;2.90;;;11.40;99.90;;;;;;5009660;28;20111;-69
2023/11/01 02:10:35;;;;;;;10.52;3.15;;;11.30;99.90;;;;;;5011155;28;20109;-69
2023/11/01 02:13:15;;;;;;;13.05;2.75;;;11.40;99.90;;;;;;5011280;28;20064;-69
2023/11/01 02:15:43;;;;;;;10.35;2.28;;;11.40;99.90;;;;;;5012396;28;20045;-69
2023/11/01 02:18:09;;;;;;;6.40;2.05;;;11.40;99.90;;;;;;5016149;28;20528;-69
2023/11/01 02:20:35;;;;;;;12.13;2.20;;;11.40;99.90;;;;;;5003526;28;20029;-69
2023/11/01 02:23:02;;;;;;;8.70;2.30;;;11.50;99.90;;;;;;5010295;28;20113;-69
2023/11/01 02:25:28;;;;;;;8.30;1.98;;;11.50;99.90;;;;;;5021994;28;20033;-69
2023/11/01 02:27:57;;;;;;;11.32;2.60;;;11.50;99.90;;;;;;5014207;28;20022;-69
2023/11/01 02:30:24;;;;;;;9.95;1.73;;;11.50;99.90;;;;;;5006151;28;20040;-69
2023/11/01 02:32:50;;;;;;;8.80;1.80;;;11.50;99.90;;;;;;5016241;28;20046;-69
2023/11/01 02:35:17;;;;;;;10.13;2.15;;;11.50;99.90;;;;;;5019195;28;20037;-69
2023/11/01 02:37:42;;;;;;;8.05;1.95;;;11.50;99.90;;;;;;5010439;28;20418;-69
2023/11/01 02:40:09;;;;;;;9.45;1.92;;;11.50;99.90;;;;;;5009358;28;20018;-69
2023/11/01 02:42:39;;;;;;;8.90;1.98;;;11.50;99.90;;;;;;5013213;28;20026;-69
2023/11/01 02:45:09;;;;;;;9.25;1.90;;;11.50;99.90;;;;;;5017868;28;20120;-69
2023/11/01 02:47:43;;;;;;;6.28;1.63;;;11.50;99.90;;;;;;5012819;28;20050;-69
2023/11/01 02:50:13;;;;;;;11.32;2.13;;;11.50;99.90;;;;;;5010203;28;20084;-69
2023/11/01 02:52:39;;;;;;;5.75;1.50;;;11.50;99.90;;;;;;5011665;28;20033;-69
2023/11/01 02:55:14;;;;;;;7.45;2.22;;;11.50;99.90;;;;;;5011609;28;20022;-69
2023/11/01 02:57:40;;;;;;;8.27;1.60;;;11.50;99.90;;;;;;5014366;28;20022;-69
2023/11/01 03:00:08;;;;;;;7.65;1.60;;;11.50;99.90;;;;;;5018513;28;20542;-69
2023/11/01 03:02:37;;;;;;;11.82;1.90;;;11.50;99.90;;;;;;5001768;28;20402;-69
2023/11/01 03:05:04;;;;;;;5.75;2.28;;;11.50;99.90;;;;;;5012401;28;20096;-69
2023/11/01 03:07:30;;;;;;;7.60;1.80;;;11.50;99.90;;;;;;5014985;28;20544;-69
2023/11/01 03:09:56;;;;;;;11.60;1.90;;;11.50;99.90;;;;;;5013393;28;20053;-69
2023/11/01 03:12:22;;;;;;;12.90;2.15;;;11.50;99.90;;;;;;5013971;28;20042;-69
2023/11/01 03:14:47;;;;;;;8.23;2.33;;;11.50;99.90;;;;;;5013303;28;20113;-69
2023/11/01 03:17:13;;;;;;;11.32;2.70;;;11.50;99.90;;;;;;5012310;28;20080;-69
2023/11/01 03:19:39;;;;;;;7.00;2.10;;;11.50;99.90;;;;;;5028428;28;20029;-69
2023/11/01 03:22:05;;;;;;;6.68;1.65;;;11.60;99.90;;;;;;5010873;28;20120;-69
2023/11/01 03:24:31;;;;;;;9.82;2.20;;;11.60;99.90;;;;;;5009333;28;20026;-69
2023/11/01 03:26:57;;;;;;;11.32;3.15;;;11.50;99.90;;;;;;5012637;28;20041;-69
2023/11/01 03:29:23;;;;;;;16.77;2.75;;;11.50;99.90;;;;;;5012903;28;20018;-69
2023/11/01 03:31:49;;;;;;;5.10;1.90;;;11.50;99.90;;;;;;5011819;28;20022;-69
2023/11/01 03:34:14;;;;;;;7.03;2.45;;;11.50;99.90;;;;;;5015146;28;20128;-69
2023/11/01 03:36:40;;;;;;;7.57;2.75;;;11.50;99.90;;;;;;5006730;28;20382;-69
2023/11/01 03:39:06;;;;;;;9.13;2.53;;;11.50;99.90;;;;;;5012382;28;20041;-69
2023/11/01 03:41:31;;;;;;;5.60;2.92;;;11.50;99.90;;;;;;5010253;28;20026;-69
2023/11/01 03:43:59;;;;;;;9.65;2.35;;;11.50;99.90;;;;;;5010464;28;20042;-69
2023/11/01 03:46:24;;;;;;;11.40;3.70;;;11.50;99.90;;;;;;5009364;28;20096;-69
2023/11/01 03:48:50;;;;;;;11.35;2.78;;;11.50;99.90;;;;;;5025440;28;20060;-70
2023/11/01 03:51:15;;;;;;;8.85;2.20;;;11.50;99.90;;;;;;5018033;28;20039;-69
2023/11/01 03:53:41;;;;;;;4.68;1.50;;;11.50;99.90;;;;;;5007188;28;20040;-69
2023/11/01 03:56:07;;;;;;;8.35;3.67;;;11.50;99.90;;;;;;5009360;28;20029;-69
2023/11/01 03:58:33;;;;;;;6.28;2.70;;;11.50;99.90;;;;;;5012440;28;20089;-69
2023/11/01 04:00:59;;;;;;;9.32;4.53;;;11.50;99.90;;;;;;5013566;28;20036;-69
2023/11/01 04:03:24;;;;;;;8.63;2.60;;;11.50;99.90;;;;;;5012490;28;20037;-69
2023/11/01 04:05:50;;;;;;;6.93;3.00;;;11.50;99.90;;;;;;5022387;28;20021;-69
2023/11/01 04:08:16;;;;;;;8.40;2.92;;;11.50;99.90;;;;;;5010129;28;20482;-69
2023/11/01 04:10:41;;;;;;;6.07;2.58;;;11.50;99.90;;;;;;5003274;28;20101;-69
2023/11/01 04:13:07;;;;;;;4.95;1.85;;;11.50;99.90;;;;;;5005513;28;20498;-69
2023/11/01 04:15:33;;;;;;;6.07;1.75;;;11.50;99.90;;;;;;5003705;28;20018;-69
2023/11/01 04:17:58;;;;;;;3.63;2.00;;;11.50;99.90;;;;;;5014275;28;20057;-69
2023/11/01 04:20:24;;;;;;;5.07;1.90;;;11.50;99.90;;;;;;5023539;28;20453;-69
2023/11/01 04:22:50;;;;;;;5.82;2.10;;;11.50;99.90;;;;;;5011309;28;20114;-69
2023/11/01 04:25:15;;;;;;;5.43;1.85;;;11.50;99.90;;;;;;5024883;28;20565;-69
2023/11/01 04:27:41;;;;;;;3.90;1.98;;;11.50;99.90;;;;;;5002708;28;20101;-69
2023/11/01 04:30:08;;;;;;;4.60;1.85;;;11.50;99.90;;;;;;5008701;28;20486;-69
2023/11/01 04:32:37;;;;;;;3.65;1.52;;;11.50;99.90;;;;;;5009766;28;20517;-69
2023/11/01 04:35:03;;;;;;;5.30;1.90;;;11.50;99.90;;;;;;5010157;28;20022;-69
2023/11/01 04:37:29;;;;;;;4.85;2.53;;;11.50;99.90;;;;;;5010449;28;20038;-69
2023/11/01 04:39:56;;;;;;;2.75;1.77;;;11.50;99.90;;;;;;5012988;28;20018;-69
2023/11/01 04:42:22;;;;;;;4.28;2.10;;;11.60;99.90;;;;;;5021385;28;20033;-69
2023/11/01 04:44:48;;;;;;;4.20;2.03;;;11.60;99.90;;;;;;5006021;28;20077;-69
2023/11/01 04:47:13;;;;;;;4.93;2.30;;;11.60;99.90;;;;;;5013413;28;20429;-69
2023/11/01 04:49:39;;;;;;;7.00;2.45;;;11.60;99.90;;;;;;5014550;28;20030;-69
2023/11/01 04:52:06;;;;;;;4.38;2.20;;;11.60;99.90;;;;;;5010585;28;20030;-69
2023/11/01 04:54:33;;;;;;;6.65;2.60;;;11.70;99.90;;;;;;5011213;28;20072;-69
2023/11/01 04:57:00;;;;;;;3.97;2.30;;;11.70;99.90;;;;;;5010592;28;20030;-69
2023/11/01 04:59:30;;;;;;;5.28;2.65;;;11.70;99.90;;;;;;5008244;28;20034;-69
2023/11/01 05:01:56;;;;;;;4.55;2.58;;;11.80;99.90;;;;;;5006411;28;20386;-69
2023/11/01 05:04:22;;;;;;;7.47;2.70;;;11.80;99.90;;;;;;5018257;28;20515;-69
2023/11/01 05:06:47;;;;;;;6.90;2.67;;;11.90;99.90;;;;;;5016341;28;20109;-69
2023/11/01 05:09:13;;;;;;;4.72;2.80;;;11.90;99.90;;;;;;5023897;28;20034;-69
2023/11/01 05:11:39;;;;;;;11.43;2.58;;;11.90;99.90;;;;;;5023112;28;20030;-69
2023/11/01 05:14:05;;;;;;;7.15;3.13;;;12.00;99.90;;;;;;5007606;28;20045;-70
2023/11/01 05:16:30;;;;;;;7.43;2.85;;;12.00;99.90;;;;;;5008570;28;20030;-69
2023/11/01 05:18:56;;;;;;;6.90;3.10;;;12.00;99.90;;;;;;5016329;28;20034;-69
2023/11/01 05:21:21;;;;;;;4.65;2.67;;;12.00;99.90;;;;;;5006926;28;20036;-69
2023/11/01 05:23:47;;;;;;;4.90;3.33;;;12.10;99.90;;;;;;5001707;28;20030;-69
2023/11/01 05:26:14;;;;;;;6.55;2.85;;;12.10;99.90;;;;;;5019031;28;20128;-69
2023/11/01 05:28:40;;;;;;;6.78;3.20;;;12.10;99.90;;;;;;5007532;28;20034;-69
2023/11/01 05:31:06;;;;;;;6.95;3.00;;;12.20;99.90;;;;;;5008501;28;20048;-69
2023/11/01 05:33:31;;;;;;;9.05;3.45;;;12.20;99.90;;;;;;5008745;28;20145;-69
2023/11/01 05:35:57;;;;;;;8.63;3.33;;;12.20;99.90;;;;;;5007399;28;20018;-69
2023/11/01 05:38:25;;;;;;;10.00;3.38;;;12.20;99.90;;;;;;5003105;28;20034;-69
2023/11/01 05:40:50;;;;;;;9.88;3.60;;;12.30;99.90;;;;;;5005077;28;20056;-69
2023/11/01 05:43:16;;;;;;;8.55;3.60;;;12.30;99.90;;;;;;5006318;28;20697;-69
2023/11/01 05:45:41;;;;;;;6.47;3.00;;;12.30;99.90;;;;;;5006387;28;20117;-69
2023/11/01 05:48:07;;;;;;;10.68;3.20;;;12.30;99.90;;;;;;5029700;28;20038;-69
2023/11/01 05:50:34;;;;;;;11.82;3.50;;;12.40;99.90;;;;;;5015298;28;20029;-69
2023/11/01 05:53:02;;;;;;;6.45;3.30;;;12.40;99.90;;;;;;5021165;28;20030;-69
2023/11/01 05:55:28;;;;;;;8.13;3.38;;;12.50;99.90;;;;;;5003428;28;20081;-69
2023/11/01 05:57:54;;;;;;;10.90;3.00;;;12.50;99.90;;;;;;5013247;28;20890;-69
2023/11/01 06:00:20;;;;;;;23.65;3.10;;;12.50;99.90;;;;;;5008985;28;20053;-69
2023/11/01 06:02:46;;;;;;;19.90;2.97;;;12.50;99.90;;;;;;5004849;28;20117;-69
2023/11/01 06:05:14;;;;;;;9.00;2.47;;;12.50;99.90;;;;;;5018269;28;20105;-69
2023/11/01 06:07:40;;;;;;;12.18;2.63;;;12.50;99.90;;;;;;5012153;28;20026;-69
2023/11/01 06:10:06;;;;;;;9.73;1.95;;;12.50;99.90;;;;;;5018788;28;20033;-70
2023/11/01 06:12:32;;;;;;;9.80;1.80;;;12.60;99.90;;;;;;5016533;28;20141;-69
2023/11/01 06:14:57;;;;;;;9.40;2.08;;;12.50;99.90;;;;;;5015873;28;20036;-69
2023/11/01 06:17:23;;;;;;;13.50;2.40;;;12.50;99.90;;;;;;5015107;28;20047;-69
2023/11/01 06:19:48;;;;;;;9.43;1.60;;;12.60;99.90;;;;;;5019033;28;20041;-69
2023/11/01 06:22:15;;;;;;;11.70;1.83;;;12.60;99.90;;;;;;5012712;28;20030;-69
2023/11/01 06:24:41;;;;;;;8.27;1.98;;;12.60;99.90;;;;;;5005757;28;20053;-69
2023/11/01 06:27:06;;;;;;;10.05;1.85;;;12.60;99.90;;;;;;5011871;28;20120;-69
2023/11/01 06:29:32;;;;;;;12.48;2.13;;;12.70;99.90;;;;;;5007976;28;20104;-69
2023/11/01 06:31:57;;;;;;;11.68;1.70;;;12.70;99.90;;;;;;5008204;28;20052;-68
2023/11/01 06:34:23;;;;;;;14.45;2.35;;;12.70;99.90;;;;;;5011932;28;20030;-68
2023/11/01 06:36:48;;;;;;;14.50;1.83;;;12.70;99.90;;;;;;5014372;28;20112;-67
2023/11/01 06:39:14;;;;;;;9.10;1.30;;;12.70;99.90;;;;;;5014488;28;20394;-69
2023/11/01 06:41:39;;;;;;;7.13;1.73;;;12.70;99.90;;;;;;5013270;28;20509;-69
2023/11/01 06:44:07;;;;;;;12.77;2.28;;;12.70;99.90;;;;;;5008467;28;20029;-69
2023/11/01 06:46:32;;;;;;;13.38;2.35;;;12.80;99.90;;;;;;5007018;28;20471;-69
2023/11/01 06:48:59;;;;;;;16.20;2.75;;;12.70;99.90;;;;;;5010181;28;20030;-69
2023/11/01 06:51:24;;;;;;;14.20;2.97;;;12.80;99.90;;;;;;5006282;28;20854;-69
2023/11/01 06:53:51;;;;;;;12.75;3.33;;;12.80;99.90;;;;;;5009016;28;20030;-68
2023/11/01 06:56:16;;;;;;;7.57;2.15;;;12.80;99.90;;;;;;5013433;28;20177;-69
2023/11/01 06:58:43;;;;;;;11.75;2.58;;;12.80;99.90;;;;;;5013936;28;20482;-69
2023/11/01 07:01:10;;;;;;;16.65;3.05;;;12.80;99.90;;;;;;5021378;28;20371;-69
2023/11/01 07:03:36;;;;;;;15.02;2.95;;;12.80;99.90;;;;;;5003522;28;20029;-69
2023/11/01 07:06:02;;;;;;;9.52;2.50;;;12.80;99.90;;;;;;5008347;28;20037;-68
2023/11/01 07:08:27;;;;;;;6.63;1.50;;;12.80;99.90;;;;;;5008177;28;20034;-68
2023/11/01 07:10:53;;;;;;;13.02;2.50;;;12.80;99.90;;;;;;5009356;28;20018;-68
2023/11/01 07:13:18;;;;;;;12.07;1.63;;;12.80;99.90;;;;;;5011658;28;20545;-68
2023/11/01 07:15:44;;;;;;;10.07;1.60;;;12.80;99.90;;;;;;5011714;28;20080;-68
2023/11/01 07:18:10;;;;;;;11.15;1.70;;;12.80;99.90;;;;;;5010490;28;20057;-69
2023/11/01 07:20:38;;;;;;;12.55;1.80;;;12.80;99.90;;;;;;5008252;28;20510;-69
2023/11/01 07:23:04;;;;;;;12.85;1.60;;;12.80;99.90;;;;;;5007271;28;20029;-68
2023/11/01 07:25:29;;;;;;;9.55;1.70;;;12.90;99.90;;;;;;5011941;28;20218;-69
2023/11/01 07:27:55;;;;;;;7.32;1.80;;;12.80;99.90;;;;;;5014112;28;20044;-69
2023/11/01 07:30:21;;;;;;;10.40;0.90;;;12.80;99.90;;;;;;5010167;28;20056;-69
2023/11/01 07:32:47;;;;;;;7.43;0.93;;;12.90;99.90;;;;;;5013795;28;20149;-69
2023/11/01 07:35:12;;;;;;;11.00;1.20;;;12.90;99.90;;;;;;5002759;28;20026;-69
2023/11/01 07:37:38;;;;;;;8.65;1.65;;;12.90;99.90;;;;;;5003943;28;20034;-68
2023/11/01 07:40:05;;;;;;;11.27;1.92;;;12.90;99.90;;;;;;4999448;28;20030;-68
2023/11/01 07:42:30;;;;;;;9.27;1.10;;;12.90;99.90;;;;;;5004157;28;20038;-68
2023/11/01 07:44:56;;;;;;;9.15;1.40;;;12.90;99.90;;;;;;5008879;28;20034;-68
2023/11/01 07:47:21;;;;;;;15.93;2.25;;;12.90;99.90;;;;;;5011999;28;20037;-68
2023/11/01 07:49:49;;;;;;;6.70;1.20;;;12.90;99.90;;;;;;5012516;28;20160;-68
2023/11/01 07:52:15;;;;;;;10.02;1.35;;;13.00;99.90;;;;;;5009837;28;20033;-69
2023/11/01 07:54:41;;;;;;;8.40;1.38;;;13.00;99.90;;;;;;5008178;28;20104;-68
2023/11/01 07:57:06;;;;;;;13.10;1.67;;;13.00;99.90;;;;;;5009774;28;20490;-68
2023/11/01 07:59:32;;;;;;;8.82;1.52;;;13.00;99.90;;;;;;5008747;28;20160;-69
2023/11/01 08:01:57;;;;;;;8.63;1.30;;;13.10;99.90;;;;;;5014877;28;20030;-69
2023/11/01 08:04:23;;;;;;;10.75;1.42;;;13.10;99.90;;;;;;5026139;28;20030;-68
2023/11/01 08:06:48;;;;;;;9.05;1.17;;;13.20;99.90;;;;;;5015365;28;20117;-68
2023/11/01 08:09:15;;;;;;;7.10;1.33;;;13.20;99.90;;;;;;5008382;28;20363;-68
2023/11/01 08:11:40;;;;;;;6.72;1.00;;;13.20;99.90;;;;;;5012703;28;20038;-68
2023/11/01 08:14:07;;;;;;;12.35;1.63;;;13.10;99.90;;;;;;5028778;28;20052;-68
2023/11/01 08:16:33;;;;;;;9.77;1.88;;;13.20;99.90;;;;;;5011692;28;20029;-68
2023/11/01 08:18:59;;;;;;;11.88;0.90;;;13.20;99.90;;;;;;5012244;28;20140;-68
2023/11/01 08:21:24;;;;;;;15.55;2.35;;;13.20;99.90;;;;;;5010688;28;20553;-68
2023/11/01 08:23:50;;;;;;;8.40;1.88;;;13.20;99.90;;;;;;5006369;28;20026;-68
2023/11/01 08:26:23;;;;;;;10.63;0.98;;;13.20;99.90;;;;;;5008451;28;20026;-68
2023/11/01 08:28:48;;;;;;;12.43;1.52;;;13.20;99.90;;;;;;5020626;28;20021;-69
2023/11/01 08:31:15;;;;;;;7.35;1.00;;;13.20;99.90;;;;;;5015897;28;20350;-68
2023/11/01 08:33:40;;;;;;;5.78;1.02;;;13.30;99.90;;;;;;5009169;28;20034;-69
2023/11/01 08:36:06;;;;;;;8.77;0.93;;;13.30;99.90;;;;;;5007464;28;20496;-68
2023/11/01 08:38:32;;;;;;;10.07;1.08;;;13.30;99.90;;;;;;5010892;28;20026;-69
2023/11/01 08:40:57;;;;;;;9.13;1.20;;;13.30;99.90;;;;;;5022569;28;20026;-69
2023/11/01 08:43:23;;;;;;;9.70;1.15;;;13.30;99.90;;;;;;5006450;28;20159;-69
2023/11/01 08:45:48;;;;;;;7.03;1.20;;;13.30;99.90;;;;;;5004259;28;20072;-70
2023/11/01 08:48:16;;;;;;;8.27;0.90;;;13.30;99.90;;;;;;5009709;28;20072;-69
2023/11/01 08:50:42;;;;;;;6.55;0.73;;;13.30;99.90;;;;;;5010276;28;20034;-70
2023/11/01 08:53:07;;;;;;;11.00;1.02;;;13.30;99.90;;;;;;5004478;28;20478;-69
2023/11/01 08:55:35;;;;;;;8.88;1.00;;;13.30;99.90;;;;;;5006770;28;20030;-69
2023/11/01 08:58:00;;;;;;;9.25;0.82;;;13.40;99.90;;;;;;5009839;28;20100;-69
2023/11/01 09:00:26;;;;;;;6.50;0.90;;;13.40;99.90;;;;;;5005560;28;20156;-69
2023/11/01 09:02:52;;;;;;;12.50;1.08;;;13.40;99.90;;;;;;5029101;28;20030;-70
2023/11/01 09:05:18;;;;;;;10.18;0.98;;;13.50;99.90;;;;;;5018913;28;20041;-69
2023/11/01 09:07:44;;;;;;;12.25;1.17;;;13.50;99.90;;;;;;5011048;28;20044;-69
2023/11/01 09:10:10;;;;;;;12.52;1.40;;;13.50;99.90;;;;;;5002914;28;20022;-69
2023/11/01 09:12:36;;;;;;;10.02;0.88;;;13.60;99.90;;;;;;5002528;28;20565;-69
2023/11/01 09:15:04;;;;;;;6.55;1.00;;;13.60;99.90;;;;;;5006846;28;20030;-69
2023/11/01 09:17:29;;;;;;;5.50;0.77;;;13.60;99.90;;;;;;5010050;28;20022;-69
2023/11/01 09:19:55;;;;;;;7.40;0.82;;;13.70;99.90;;;;;;5007543;28;20034;-68
2023/11/01 09:22:21;;;;;;;9.18;0.77;;;13.60;99.90;;;;;;5001283;28;20030;-68
2023/11/01 09:24:47;;;;;;;8.23;1.05;;;13.70;99.90;;;;;;5011301;28;20091;-69
2023/11/01 09:27:12;;;;;;;7.35;0.93;;;13.70;99.90;;;;;;5009716;28;20477;-69
2023/11/01 09:29:38;;;;;;;9.27;0.50;;;13.70;99.90;;;;;;5010998;28;20105;-69
2023/11/01 09:32:04;;;;;;;9.68;0.82;;;13.80;99.90;;;;;;5008340;28;20045;-69
2023/11/01 09:34:30;;;;;;;9.65;0.90;;;13.90;99.90;;;;;;5001853;28;20042;-69
2023/11/01 09:36:55;;;;;;;8.68;1.13;;;14.00;99.90;;;;;;4999046;28;20504;-69
2023/11/01 09:39:21;;;;;;;12.07;0.73;;;14.10;99.90;;;;;;4998359;28;20465;-69
2023/11/01 09:41:54;;;;;;;5.80;0.63;;;14.10;99.90;;;;;;4998404;28;20037;-69
2023/11/01 09:44:20;;;;;;;17.17;1.48;;;14.10;99.90;;;;;;5010095;28;20036;-69
2023/11/01 09:46:47;;;;;;;6.65;0.55;;;14.10;99.90;;;;;;5008684;28;20038;-69
2023/11/01 09:49:14;;;;;;;9.18;0.60;;;14.00;99.90;;;;;;4999093;28;20386;-69
2023/11/01 09:51:41;;;;;;;8.70;0.90;;;14.00;99.90;;;;;;5008160;28;20061;-69
2023/11/01 09:54:08;;;;;;;5.32;0.57;;;14.00;99.90;;;;;;5002313;28;20046;-69
2023/11/01 09:56:40;;;;;;;4.45;0.50;;;14.00;99.90;;;;;;5008375;28;20026;-70
2023/11/01 09:59:07;;;;;;;8.45;0.50;;;14.10;99.90;;;;;;5011311;28;20030;-69
2023/11/01 10:01:34;;;;;;;6.93;0.57;;;14.00;99.90;;;;;;5007951;28;20531;-69
2023/11/01 10:04:01;;;;;;;7.85;0.70;;;14.10;99.90;;;;;;5003307;28;20034;-69
2023/11/01 10:06:27;;;;;;;9.65;1.02;;;14.10;99.90;;;;;;4999962;28;20030;-69
2023/11/01 10:08:54;;;;;;;7.40;1.15;;;14.10;99.90;;;;;;5002814;28;20033;-69
2023/11/01 10:11:20;;;;;;;4.68;0.52;;;14.00;99.90;;;;;;4995853;28;20117;-69
2023/11/01 10:13:47;;;;;;;7.20;0.80;;;14.10;99.90;;;;;;4993896;28;20080;-69
2023/11/01 10:16:13;;;;;;;5.20;0.50;;;14.10;99.90;;;;;;4992469;28;20034;-68
2023/11/01 10:18:47;;;;;;;7.05;1.10;;;14.10;99.90;;;;;;5002749;28;20036;-69
2023/11/01 10:21:13;;;;;;;8.25;0.75;;;14.10;99.90;;;;;;5002779;28;20111;-70
2023/11/01 10:23:39;;;;;;;4.22;0.40;;;14.10;99.90;;;;;;4993962;28;20629;-69
2023/11/01 10:26:05;;;;;;;8.23;0.52;;;14.20;99.90;;;;;;4978238;28;20033;-70
2023/11/01 10:28:34;;;;;;;6.20;0.60;;;14.20;99.90;;;;;;4995441;28;20038;-70
2023/11/01 10:31:01;;;;;;;4.53;0.57;;;14.20;99.90;;;;;;5001094;28;20029;-68
2023/11/01 10:33:30;;;;;;;8.77;0.77;;;14.30;99.90;;;;;;5002045;28;20041;-69
2023/11/01 10:36:03;;;;;;;4.68;0.65;;;14.30;99.90;;;;;;5001979;28;20415;-69
2023/11/01 10:38:30;;;;;;;4.88;0.40;;;14.30;99.90;;;;;;5004273;28;20026;-69
2023/11/01 10:41:00;;;;;;;9.60;0.80;;;14.30;99.90;;;;;;5019630;28;20374;-70
2023/11/01 10:43:29;;;;;;;11.80;0.70;;;14.30;99.90;;;;;;4997654;28;20093;-70
2023/11/01 10:45:57;;;;;;;5.63;0.50;;;14.30;99.90;;;;;;5006690;28;20053;-70
2023/11/01 10:48:24;;;;;;;4.90;0.45;;;14.30;99.90;;;;;;5013251;28;20033;-69
2023/11/01 10:50:50;;;;;;;3.20;0.50;;;14.30;99.90;;;;;;5009683;28;20360;-70
2023/11/01 10:53:16;;;;;;;6.88;0.50;;;14.30;99.90;;;;;;5032510;28;20041;-69
2023/11/01 10:55:42;;;;;;;10.07;1.48;;;14.40;99.90;;;;;;5021169;28;20032;-69
2023/11/01 10:58:14;;;;;;;6.30;0.68;;;14.40;99.90;;;;;;4996693;28;20519;-69
2023/11/01 11:00:44;;;;;;;5.47;0.50;;;14.50;99.90;;;;;;4999617;28;20029;-70
2023/11/01 11:03:25;;;;;;;6.45;0.80;;;14.50;99.90;;;;;;5006331;28;20029;-70
2023/11/01 11:05:53;;;;;;;4.85;0.50;;;14.50;99.90;;;;;;5009020;28;20030;-70
2023/11/01 11:08:19;;;;;;;6.38;0.80;;;14.50;99.90;;;;;;5023088;28;20022;-69
2023/11/01 11:10:45;;;;;;;8.10;0.88;;;14.60;99.90;;;;;;5011638;28;20036;-69
2023/11/01 11:13:28;;;;;;;6.00;0.60;;;14.60;99.90;;;;;;5010549;28;20034;-70
2023/11/01 11:15:59;;;;;;;7.95;0.68;;;14.60;99.90;;;;;;5010859;28;20022;-70
2023/11/01 11:18:27;;;;;;;9.38;0.70;;;14.70;99.90;;;;;;5007952;28;20980;-71
2023/11/01 11:20:55;;;;;;;7.45;0.90;;;14.60;99.90;;;;;;5014102;28;20026;-70
2023/11/01 11:23:39;;;;;;;9.60;1.52;;;14.70;99.90;;;;;;5001308;28;20033;-70
2023/11/01 11:26:06;;;;;;;6.18;0.57;;;14.70;99.90;;;;;;5004405;28;20018;-71
2023/11/01 11:28:31;;;;;;;5.95;0.80;;;14.80;99.90;;;;;;5017791;28;20025;-70
2023/11/01 11:31:01;;;;;;;5.50;0.60;;;14.90;99.90;;;;;;5005022;28;20080;-70
2023/11/01 11:33:27;;;;;;;5.05;0.57;;;15.10;99.90;;;;;;5015356;28;20173;-70
2023/11/01 11:36:08;;;;;;;5.70;0.70;;;15.20;99.90;;;;;;5011110;28;20038;-70
2023/11/01 11:38:35;;;;;;;4.15;0.70;;;15.30;99.90;;;;;;5004926;28;20021;-70
2023/11/01 11:41:12;;;;;;;5.47;0.88;;;15.30;99.90;;;;;;4997676;28;20028;-70
2023/11/01 11:44:13;;;;;;;4.18;0.47;;;15.30;99.90;;;;;;5008082;28;20030;-69
2023/11/01 11:46:44;;;;;;;6.90;0.90;;;15.20;99.90;;;;;;5005365;28;20124;-70
2023/11/01 11:49:31;;;;;;;3.72;0.50;;;15.20;99.90;;;;;;5017022;28;20033;-69
2023/11/01 11:52:04;;;;;;;8.27;0.70;;;15.20;99.90;;;;;;5003631;28;20033;-70
2023/11/01 11:54:31;;;;;;;4.90;0.50;;;15.30;99.90;;;;;;5023132;28;20443;-70
2023/11/01 11:56:58;;;;;;;2.40;0.40;;;15.40;99.90;;;;;;5012312;28;20034;-70
2023/11/01 11:59:25;;;;;;;2.22;0.30;;;15.40;99.90;;;;;;4996103;28;20034;-70
2023/11/01 12:01:53;;;;;;;4.53;0.40;;;15.50;99.90;;;;;;5011461;28;20112;-70
2023/11/01 12:04:19;;;;;;;3.58;0.30;;;15.60;99.90;;;;;;5008960;28;20461;-70
2023/11/01 12:06:47;;;;;;;5.25;0.55;;;15.70;99.90;;;;;;5013612;28;20033;-70
2023/11/01 12:09:23;;;;;;;9.70;0.57;;;15.70;99.90;;;;;;5010530;28;20029;-70
2023/11/01 12:11:59;;;;;;;10.30;0.95;;;15.70;99.90;;;;;;5007516;28;20072;-69
2023/11/01 12:14:27;;;;;;;3.78;0.40;;;15.60;99.90;;;;;;5003413;28;20049;-70
2023/11/01 12:16:54;;;;;;;6.72;0.40;;;15.60;99.90;;;;;;5008483;28;20029;-70
2023/11/01 12:19:21;;;;;;;5.22;0.40;;;15.50;99.90;;;;;;5009483;28;20075;-70
2023/11/01 12:21:52;;;;;;;7.25;0.40;;;15.50;99.90;;;;;;5005498;28;20034;-71
2023/11/01 12:24:47;;;;;;;3.72;0.40;;;15.50;99.90;;;;;;5004716;28;20056;-71
2023/11/01 12:27:18;;;;;;;6.88;0.40;;;15.50;99.90;;;;;;5013980;28;20037;-71
2023/11/01 12:29:54;;;;;;;4.72;0.47;;;15.50;99.90;;;;;;5014117;28;20026;-70
2023/11/01 12:32:22;;;;;;;5.32;0.68;;;15.50;99.90;;;;;;5011164;28;20109;-71
2023/11/01 12:34:48;;;;;;;4.47;0.30;;;15.60;99.90;;;;;;5006735;28;20030;-71
2023/11/01 12:37:19;;;;;;;3.05;0.30;;;15.70;99.90;;;;;;5006227;28;20497;-72
2023/11/01 12:40:10;;;;;;;3.47;0.50;;;15.90;99.90;;;;;;5004078;28;20030;-71
2023/11/01 12:42:37;;;;;;;4.53;0.60;;;15.90;99.90;;;;;;5009601;28;20157;-71